Chillicothe, MO

12:52 PM CDT on July 31, 2014 (GMT -0500)
Northwest Chillicothe (KMOCHILL2) Elev 843 ft | 39.82 °N, 93.60 °W | Change Station

Current weather conditions updated 3 seconds ago

Mostly Cloudy
Mostly Cloudy
80.1 °F
Feels Like 81 °F
N
0.0
Wind Variable Wind from South
Gusts 0.0 mph

Today is forecast to be nearly the same temperature as yesterday.

Today
High -- | Low -- °F
--% Chance of Precip.
Yesterday
High -- | Low -- °F
Precip. -- in
6:12 AM 8:28 PM
Waxing Crescent, 20% visible
Pressure 30.11 in
Visibility 10.0 miles
Clouds Scattered Clouds 4700 ft
Mostly Cloudy 6000 ft
Mostly Cloudy 6500 ft
Heat Index 81 °F
Dew Point 59 °F
Humidity 49%
Rainfall 0.00 in
Snow Depth Not available.
UV 6 out of 12
Pollen 6.30 out of 12
Air Quality Not available.
Flu Activity Not available.
METAR KGPH 311735Z AUTO 16003KT 10SM SCT047 BKN060 BKN065 26/11 A3011 RMK AO2

More Conditions Fewer Conditions

Pressure 30.11 in
Visibility 10.0 miles
Clouds Scattered Clouds 4700 ft
Mostly Cloudy 6000 ft
Mostly Cloudy 6500 ft
Heat Index 81 °F
Dew Point 59 °F
Humidity 49%
Rainfall 0.00 in
Snow Depth Not available.
UV 6 out of 12
Pollen 6.30 out of 12
Air Quality Not available.
Flu Activity Not available.
METAR KGPH 311735Z AUTO 16003KT 10SM SCT047 BKN060 BKN065 26/11 A3011 RMK AO2

More Conditions Fewer Conditions

10-Day Weather Forecast

Almanac

Astronomy

Jul. 31, 2014 Rise Set
Actual Time 6:12 AM CDT 8:28 PM CDT
Civil Twilight 5:41 AM CDT 8:58 PM CDT
Nautical Twilight 5:04 AM CDT 9:35 PM CDT
Astronomical Twilight 4:23 AM CDT 10:16 PM CDT
Moon 10:39 AM CDT 10:42 PM CDT
Length of Visible Light 15h 16m
Length of Day
14h 16m
Tomorrow will be 1m 56s shorter.
Waxing Crescent, 20% of the Moon is Illuminated
Today
Waxing Crescent
Aug 3
First Quarter
Aug 10
Full
Aug 17
Last Quarter
Aug 25
New

Today's Extremes

State Highs State Lows

Community

WunderPhotos

Upload Photos

1,739,386 photos uploaded!

Nearby

Snow Depth

Station Depth Elevation
No new snow has been reported.

Earthquake Activity

City Distance Mag. Time & Date
No recent earthquake activity has been reported nearby.
Minimum magnitude displayed is 2.5.

Coastal Water Temperatures

Place Temperature
No Stations Reporting

Nearby Weather Stations

Station Location Temp. Heat Index Dew Point Humidity Wind Precip. Elev Updated Type
Northwest Chillicothe, Chillicothe, MO 80.1 °F 81 °F 59 °F 49% South  at  0.0 mph 0.00 in / hr 843 ft 12:52 PM CDT Rapid Fire
MesoWest COBURN , Jamesport, MO 77 °F 75 °F - - North  at  - 0.00 in / hr 901 ft 10:30 AM CDT MADIS
trenton mo, Trenton, MO 82.0 °F 82 °F 59 °F 46% SW  at  3.5 mph 0.00 in / hr 850 ft 12:52 PM CDT Rapid Fire
MesoWest NETTLE , Hamilton, MO 87 °F 84 °F - - North  at  - 0.00 in / hr 772 ft 11:05 AM CDT MADIS
ENGLERT - KMOHALE3, Hale, MO 89.4 °F 88 °F 57 °F 34% West  at  0.0 mph 0.00 in / hr 764 ft 12:52 PM CDT Rapid Fire

Show More Stations Show Fewer Stations